Aragominas, Brazil
Current Conditions -  °F | °C
As of 7:15 AM on Sunday 23 Nov 2014 (Local Time) from SBCJ Reporting Station
Broken Clouds Broken Clouds  
Wind Chill: 75°   Ceiling: 1000
Heat Index: 75°   Visibility: 4mi
Dew Point: 70°   Wind: 0mph
Humidity: 83%   Direction: NA
Pressure: 29.94"   Gusts: NA
Location:  7.16°S, 48.53°W
Report Text: SBCJ 231015Z 00000KT 6000 BKN010 24/21 Q1014
Loading
Personal Weather Stations






























Interactive Weather Map New forecast layout! Learn more

10-Day Weather Forecast

Advertisements
Track Severe Weather on mobile